Time;durP1;ratioP1;P1;durP2;ratioP2;P2;SDS_P1;SDS_P2;PMS_P1;PMS_P2;Temp;Humidity;BMP_temperature;BMP_pressure;BME280_temperature;BME280_humidity;BME280_pressure;Samples;Min_cycle;Max_cycle;Signal;HPM_P1;HPM_P2
2023/02/05 00:00:39;;;;;;;;;;;;;;;25.56;29.43;95112.88;4946952;29;1386;-71
2023/02/05 00:03:04;;;;;;;;;;;;;;;25.60;29.58;95115.09;4947363;29;1338;-68
2023/02/05 00:05:30;;;;;;;;;;;;;;;25.62;29.70;95132.63;4944211;29;1398;-68
2023/02/05 00:07:55;;;;;;;;;;;;;;;25.65;29.71;95128.66;4944818;29;1398;-68
2023/02/05 00:10:20;;;;;;;;;;;;;;;25.67;29.84;95131.91;4939117;29;1331;-69
2023/02/05 00:12:45;;;;;;;;;;;;;;;25.67;29.81;95135.44;4927410;29;1315;-68
2023/02/05 00:15:11;;;;;;;;;;;;;;;25.68;29.84;95142.44;4967700;28;1413;-65
2023/02/05 00:17:36;;;;;;;;;;;;;;;25.67;30.06;95129.22;4944824;28;1903;-65
2023/02/05 00:20:03;;;;;;;;;;;;;;;25.66;30.12;95139.16;4947289;29;1385;-65
2023/02/05 00:22:28;;;;;;;;;;;;;;;25.63;30.25;95134.25;4947494;29;1397;-65
2023/02/05 00:24:53;;;;;;;;;;;;;;;25.63;30.04;95138.81;4936368;28;1389;-65
2023/02/05 00:27:19;;;;;;;;;;;;;;;25.61;30.25;95136.34;4939652;28;1334;-72
2023/02/05 00:29:44;;;;;;;;;;;;;;;25.62;30.67;95150.63;4938194;29;1413;-65
2023/02/05 00:32:09;;;;;;;;;;;;;;;25.60;30.46;95145.47;4967083;28;1386;-65
2023/02/05 00:34:34;;;;;;;;;;;;;;;25.58;30.77;95142.19;4947025;29;1414;-65
2023/02/05 00:37:00;;;;;;;;;;;;;;;25.57;30.74;95145.94;4947345;28;1891;-65
2023/02/05 00:39:25;;;;;;;;;;;;;;;25.55;30.78;95138.09;4935927;29;1287;-65
2023/02/05 00:41:51;;;;;;;;;;;;;;;25.57;31.07;95146.75;4949684;29;1506;-67
2023/02/05 00:44:16;;;;;;;;;;;;;;;25.58;31.15;95143.00;4945628;29;1425;-67
2023/02/05 00:46:41;;;;;;;;;;;;;;;25.59;31.12;95149.22;4930928;28;1331;-66
2023/02/05 00:49:07;;;;;;;;;;;;;;;25.63;31.14;95163.81;4952585;29;1406;-67
2023/02/05 00:51:32;;;;;;;;;;;;;;;25.70;31.50;95163.69;4948685;29;1342;-67
2023/02/05 00:53:57;;;;;;;;;;;;;;;25.69;31.48;95149.44;4940178;29;1387;-70
2023/02/05 00:56:22;;;;;;;;;;;;;;;25.71;31.42;95162.66;4942393;29;1907;-67
2023/02/05 00:58:49;;;;;;;;;;;;;;;25.74;31.82;95154.09;4927777;29;1474;-65
2023/02/05 01:01:14;;;;;;;;;;;;;;;25.75;31.67;95153.03;4940713;29;1351;-66
2023/02/05 01:03:40;;;;;;;;;;;;;;;25.74;31.77;95162.97;4941108;29;1368;-66
2023/02/05 01:06:06;;;;;;;;;;;;;;;25.76;31.97;95158.19;4962445;28;1429;-65
2023/02/05 01:08:31;;;;;;;;;;;;;;;25.77;31.74;95165.19;4931362;29;945;-66
2023/02/05 01:10:56;;;;;;;;;;;;;;;25.82;31.93;95174.44;4933831;29;1316;-66
2023/02/05 01:13:22;;;;;;;;;;;;;;;25.83;31.84;95165.34;4935298;29;794;-66
2023/02/05 01:15:47;;;;;;;;;;;;;;;25.78;31.88;95169.50;4953359;29;1940;-67
2023/02/05 01:18:12;;;;;;;;;;;;;;;25.78;32.00;95161.44;4945780;28;1489;-66
2023/02/05 01:20:39;;;;;;;;;;;;;;;25.78;31.97;95174.88;4929578;29;1336;-73
2023/02/05 01:23:04;;;;;;;;;;;;;;;25.76;31.90;95171.63;4954241;28;1064;-65
2023/02/05 01:25:30;;;;;;;;;;;;;;;25.76;32.15;95168.94;4946188;28;1422;-65
2023/02/05 01:27:55;;;;;;;;;;;;;;;25.73;31.95;95164.03;4935700;29;865;-66
2023/02/05 01:30:20;;;;;;;;;;;;;;;25.72;32.17;95166.94;4935429;29;925;-66
2023/02/05 01:32:45;;;;;;;;;;;;;;;25.71;32.13;95168.00;4924243;29;1288;-65
2023/02/05 01:35:11;;;;;;;;;;;;;;;25.70;32.39;95174.41;4940010;29;1422;-65
2023/02/05 01:37:36;;;;;;;;;;;;;;;25.68;32.17;95171.97;4954787;28;2248;-65
2023/02/05 01:40:02;;;;;;;;;;;;;;;25.69;32.22;95170.09;4946119;28;1398;-65
2023/02/05 01:42:28;;;;;;;;;;;;;;;25.66;32.48;95166.00;4938395;29;1550;-66
2023/02/05 01:45:12;;;;;;;;;;;;;;;25.65;32.22;95174.34;4932272;29;1459;-66
2023/02/05 01:47:38;;;;;;;;;;;;;;;25.62;32.30;95175.59;4948567;29;1334;-65
2023/02/05 01:50:03;;;;;;;;;;;;;;;25.60;32.30;95177.69;4938853;29;1525;-66
2023/02/05 01:52:28;;;;;;;;;;;;;;;25.59;32.37;95186.81;4967024;28;1324;-65
2023/02/05 01:54:53;;;;;;;;;;;;;;;25.64;32.61;95183.41;4931350;28;1431;-66
2023/02/05 01:57:22;;;;;;;;;;;;;;;25.65;32.78;95188.56;4965627;28;1915;-66
2023/02/05 01:59:48;;;;;;;;;;;;;;;25.71;32.59;95186.81;4951397;28;1318;-66
2023/02/05 02:02:14;;;;;;;;;;;;;;;25.71;32.43;95190.31;4955819;28;1406;-66
2023/02/05 02:04:41;;;;;;;;;;;;;;;25.74;32.13;95194.41;4959315;28;1350;-66
2023/02/05 02:07:07;;;;;;;;;;;;;;;25.76;32.46;95186.94;4938990;29;1324;-66
2023/02/05 02:09:33;;;;;;;;;;;;;;;25.76;32.30;95193.13;4938224;29;857;-66
2023/02/05 02:11:59;;;;;;;;;;;;;;;25.77;32.58;95194.75;4951989;29;1378;-66
2023/02/05 02:14:25;;;;;;;;;;;;;;;25.79;32.35;95192.66;4951901;28;1335;-66
2023/02/05 02:16:52;;;;;;;;;;;;;;;25.79;32.13;95197.22;4940106;28;1899;-65
2023/02/05 02:19:40;;;;;;;;;;;;;;;25.76;32.22;95187.75;4941326;28;1274;-70
2023/02/05 02:22:11;;;;;;;;;;;;;;;25.77;32.43;95200.13;4937737;29;1508;-65
2023/02/05 02:24:49;;;;;;;;;;;;;;;25.85;32.22;95200.88;4947244;28;1414;-68
2023/02/05 02:27:14;;;;;;;;;;;;;;;25.94;32.23;95202.16;4944852;29;1537;-67
2023/02/05 02:29:51;;;;;;;;;;;;;;;25.99;32.27;95208.47;4949453;28;1382;-67
2023/02/05 02:32:20;;;;;;;;;;;;;;;26.08;32.24;95205.41;4946374;28;1427;-67
2023/02/05 02:34:49;;;;;;;;;;;;;;;26.08;31.89;95206.25;4951010;29;1327;-67
2023/02/05 02:37:33;;;;;;;;;;;;;;;26.11;32.07;95208.44;4950520;28;1898;-66
2023/02/05 02:40:21;;;;;;;;;;;;;;;26.11;31.97;95208.44;4949515;28;1512;-66
2023/02/05 02:42:53;;;;;;;;;;;;;;;26.13;31.99;95210.91;4943598;29;1336;-67
2023/02/05 02:45:21;;;;;;;;;;;;;;;26.12;32.03;95215.44;4950955;29;1390;-67
2023/02/05 02:47:49;;;;;;;;;;;;;;;26.10;32.01;95219.44;4944525;28;1334;-67
2023/02/05 02:50:15;;;;;;;;;;;;;;;26.08;31.71;95221.56;4952604;28;1602;-67
2023/02/05 02:52:43;;;;;;;;;;;;;;;26.07;31.95;95220.75;4934544;29;1315;-67
2023/02/05 02:55:10;;;;;;;;;;;;;;;26.08;31.80;95222.38;4951129;28;1334;-67
2023/02/05 02:57:38;;;;;;;;;;;;;;;26.09;32.01;95229.38;4943674;29;1900;-66
2023/02/05 03:00:07;;;;;;;;;;;;;;;26.09;31.71;95221.31;4943159;28;1271;-67
2023/02/05 03:02:34;;;;;;;;;;;;;;;26.09;31.94;95221.31;4931479;29;1370;-66
2023/02/05 03:05:02;;;;;;;;;;;;;;;26.05;31.80;95228.22;4940850;29;1367;-67
2023/02/05 03:07:33;;;;;;;;;;;;;;;26.06;31.93;95234.41;4941974;29;1311;-66
2023/02/05 03:10:06;;;;;;;;;;;;;;;26.07;32.03;95242.25;4940901;28;1322;-65
2023/02/05 03:12:31;;;;;;;;;;;;;;;26.09;31.88;95232.06;4968968;28;1419;-66
2023/02/05 03:14:57;;;;;;;;;;;;;;;26.12;32.10;95239.66;4944716;28;1414;-66
2023/02/05 03:17:23;;;;;;;;;;;;;;;26.15;32.08;95239.19;4948660;28;1899;-66
2023/02/05 03:19:57;;;;;;;;;;;;;;;26.17;31.80;95228.22;4939499;28;1333;-66
2023/02/05 03:22:22;;;;;;;;;;;;;;;26.20;31.83;95236.59;4966473;28;1378;-66
2023/02/05 03:24:49;;;;;;;;;;;;;;;26.20;31.94;95236.59;4949934;29;1351;-66
2023/02/05 03:27:14;;;;;;;;;;;;;;;26.19;31.79;95237.69;4946066;28;1385;-67
2023/02/05 03:29:43;;;;;;;;;;;;;;;26.16;31.60;95246.22;4953288;29;1389;-66
2023/02/05 03:32:24;;;;;;;;;;;;;;;26.16;31.84;95256.16;4937949;29;1323;-66
2023/02/05 03:35:07;;;;;;;;;;;;;;;26.18;31.90;95254.88;4947994;29;1394;-67
2023/02/05 03:37:39;;;;;;;;;;;;;;;26.10;31.51;95252.53;4929372;29;1969;-65
2023/02/05 03:40:25;;;;;;;;;;;;;;;26.07;31.59;95247.63;4939381;29;1379;-65
2023/02/05 03:42:57;;;;;;;;;;;;;;;26.00;31.84;95241.53;4944504;29;1383;-65
2023/02/05 03:45:25;;;;;;;;;;;;;;;25.97;31.89;95242.81;4962972;28;1422;-65
2023/02/05 03:47:50;;;;;;;;;;;;;;;25.94;32.01;95247.84;4943317;29;1413;-65
2023/02/05 03:50:15;;;;;;;;;;;;;;;25.90;31.94;95246.66;4931293;29;1112;-65
2023/02/05 03:52:44;;;;;;;;;;;;;;;25.87;32.10;95260.56;4951833;29;1338;-65
2023/02/05 03:55:17;;;;;;;;;;;;;;;25.88;32.21;95256.84;4951092;28;1342;-66
2023/02/05 03:57:55;;;;;;;;;;;;;;;25.83;31.98;95256.72;4950816;29;1907;-66
2023/02/05 04:00:21;;;;;;;;;;;;;;;25.79;32.01;95259.84;4941462;29;1351;-65
2023/02/05 04:02:46;;;;;;;;;;;;;;;25.77;32.29;95258.44;4952758;28;1314;-65
2023/02/05 04:05:12;;;;;;;;;;;;;;;25.76;32.08;95260.31;4938987;29;1331;-66
2023/02/05 04:07:37;;;;;;;;;;;;;;;25.75;32.11;95269.41;4943392;29;1519;-65
2023/02/05 04:10:02;;;;;;;;;;;;;;;25.74;32.39;95270.47;4959809;28;1414;-65
2023/02/05 04:12:28;;;;;;;;;;;;;;;25.73;32.32;95268.84;4937987;29;1429;-65
2023/02/05 04:14:53;;;;;;;;;;;;;;;25.79;32.17;95270.59;4940938;29;1427;-65
2023/02/05 04:17:18;;;;;;;;;;;;;;;25.82;32.41;95274.69;4945945;29;1911;-64
2023/02/05 04:19:44;;;;;;;;;;;;;;;25.87;32.07;95260.56;4938332;29;1334;-65
2023/02/05 04:22:09;;;;;;;;;;;;;;;25.92;32.27;95268.75;4937969;29;1391;-65
2023/02/05 04:24:35;;;;;;;;;;;;;;;25.87;32.14;95279.38;4936571;29;1299;-64
2023/02/05 04:27:00;;;;;;;;;;;;;;;25.88;32.43;95275.66;4968883;28;1311;-65
2023/02/05 04:29:25;;;;;;;;;;;;;;;25.94;32.54;95282.81;4943711;29;1401;-64
2023/02/05 04:31:50;;;;;;;;;;;;;;;26.01;32.22;95287.03;4946292;29;1478;-64
2023/02/05 04:34:16;;;;;;;;;;;;;;;26.04;32.21;95291.09;4937178;28;1419;-64
2023/02/05 04:36:41;;;;;;;;;;;;;;;26.04;32.05;95280.34;4943810;29;1903;-64
2023/02/05 04:39:06;;;;;;;;;;;;;;;26.06;32.04;95289.00;4947435;29;1387;-65
2023/02/05 04:41:32;;;;;;;;;;;;;;;26.06;31.96;95289.00;4940738;29;1358;-65
2023/02/05 04:43:57;;;;;;;;;;;;;;;26.07;32.20;95292.50;4966982;28;1422;-65
2023/02/05 04:46:22;;;;;;;;;;;;;;;26.10;32.05;95289.34;4938829;29;1303;-72
2023/02/05 04:48:47;;;;;;;;;;;;;;;26.11;31.79;95299.06;4944581;28;1327;-65
2023/02/05 04:51:13;;;;;;;;;;;;;;;26.11;31.85;95297.19;4945804;29;1417;-65
2023/02/05 04:53:38;;;;;;;;;;;;;;;26.04;31.67;95296.47;4951911;29;1385;-66
2023/02/05 04:56:05;;;;;;;;;;;;;;;25.99;31.82;95299.88;4945804;28;1918;-65
2023/02/05 04:58:30;;;;;;;;;;;;;;;25.99;31.83;95294.50;4940758;28;1322;-65
2023/02/05 05:00:56;;;;;;;;;;;;;;;25.99;31.88;95299.06;4952791;29;1323;-65
2023/02/05 05:03:21;;;;;;;;;;;;;;;25.96;31.92;95304.91;4952454;29;1418;-65
2023/02/05 05:05:46;;;;;;;;;;;;;;;25.96;32.08;95302.22;4950142;29;1322;-65
2023/02/05 05:08:11;;;;;;;;;;;;;;;25.98;32.12;95308.16;4949342;28;1280;-65
2023/02/05 05:10:37;;;;;;;;;;;;;;;25.98;32.26;95313.53;4950045;29;1385;-66
2023/02/05 05:13:02;;;;;;;;;;;;;;;26.00;32.12;95316.81;4945432;28;1397;-72
2023/02/05 05:15:27;;;;;;;;;;;;;;;25.98;31.59;95308.16;4944518;29;1419;-66
2023/02/05 05:17:53;;;;;;;;;;;;;;;26.00;32.04;95317.63;4940972;29;1966;-66
2023/02/05 05:20:18;;;;;;;;;;;;;;;26.01;31.89;95313.91;4949783;28;1356;-66
2023/02/05 05:22:43;;;;;;;;;;;;;;;26.01;31.92;95318.44;4953848;29;1386;-66
2023/02/05 05:25:09;;;;;;;;;;;;;;;25.99;32.08;95326.75;4952748;29;1417;-65
2023/02/05 05:27:34;;;;;;;;;;;;;;;25.97;31.99;95325.34;4956453;29;1322;-65
2023/02/05 05:29:59;;;;;;;;;;;;;;;25.98;32.19;95335.03;4941606;29;1406;-66
2023/02/05 05:32:24;;;;;;;;;;;;;;;26.03;31.99;95335.16;4935880;29;1216;-66
2023/02/05 05:34:50;;;;;;;;;;;;;;;26.06;31.96;95331.19;4951476;28;1449;-66
2023/02/05 05:37:15;;;;;;;;;;;;;;;26.03;31.72;95343.22;4960943;28;1977;-66
2023/02/05 05:45:09;;;;;;;;;;;;;;;25.94;31.89;95356.19;4947627;29;1227;-65
2023/02/05 05:47:34;;;;;;;;;;;;;;;25.91;31.56;95350.47;4955838;28;1432;-65
2023/02/05 05:49:59;;;;;;;;;;;;;;;25.88;31.77;95367.06;4956559;28;1477;-65
2023/02/05 05:52:25;;;;;;;;;;;;;;;26.21;31.80;95361.13;4963840;28;1298;-68
2023/02/05 05:54:50;;;;;;;;;;;;;;;26.51;30.85;95362.94;4958737;28;1203;-67
2023/02/05 05:57:15;;;;;;;;;;;;;;;26.68;30.61;95361.19;4979913;28;1914;-68
2023/02/05 05:59:40;;;;;;;;;;;;;;;26.62;29.71;95368.31;4965642;28;1402;-65
2023/02/05 06:02:06;;;;;;;;;;;;;;;26.29;30.66;95366.16;4981796;28;1311;-66
2023/02/05 06:04:31;;;;;;;;;;;;;;;26.11;30.77;95372.47;4954998;28;1390;-65
2023/02/05 06:06:58;;;;;;;;;;;;;;;26.02;31.04;95376.56;4961088;28;1306;-65
2023/02/05 06:09:23;;;;;;;;;;;;;;;25.93;31.10;95370.69;4964969;28;1144;-66
2023/02/05 06:11:49;;;;;;;;;;;;;;;25.90;30.91;95381.06;4964282;28;1318;-65
2023/02/05 06:14:14;;;;;;;;;;;;;;;25.88;31.12;95372.44;4967082;28;1247;-65
2023/02/05 06:16:40;;;;;;;;;;;;;;;25.87;31.32;95378.84;4955363;28;1891;-66
2023/02/05 06:19:05;;;;;;;;;;;;;;;25.86;31.40;95380.72;4967124;28;1314;-66
2023/02/05 06:21:31;;;;;;;;;;;;;;;25.86;31.23;95390.66;4964110;28;1294;-66
2023/02/05 06:23:56;;;;;;;;;;;;;;;25.86;31.26;95390.66;4954894;28;1378;-67
2023/02/05 06:26:21;;;;;;;;;;;;;;;25.85;31.67;95389.03;4948081;29;1350;-66
2023/02/05 06:28:46;;;;;;;;;;;;;;;25.86;31.48;95393.34;4939663;29;1394;-65
2023/02/05 06:31:12;;;;;;;;;;;;;;;25.93;31.79;95404.81;4950277;29;1335;-66
2023/02/05 06:33:37;;;;;;;;;;;;;;;25.92;31.44;95406.66;4947246;29;1410;-66
2023/02/05 06:36:02;;;;;;;;;;;;;;;25.88;31.36;95418.94;4937495;29;1967;-66
2023/02/05 06:38:28;;;;;;;;;;;;;;;25.88;31.25;95421.63;4946220;29;1339;-66
2023/02/05 06:40:53;;;;;;;;;;;;;;;25.88;31.40;95415.44;4943528;28;1393;-68
2023/02/05 06:43:18;;;;;;;;;;;;;;;25.90;31.56;95413.31;4949097;29;1394;-67
2023/02/05 06:45:43;;;;;;;;;;;;;;;25.79;28.38;95426.47;4941195;29;1390;-74
2023/02/05 06:48:09;;;;;;;;;;;;;;;24.02;21.37;95421.69;4953300;28;1351;-77
2023/02/05 06:50:34;;;;;;;;;;;;;;;22.48;22.41;95427.78;4940114;29;1356;-66
2023/02/05 06:52:59;;;;;;;;;;;;;;;21.37;22.45;95432.75;4946409;29;1430;-66
2023/02/05 06:55:24;;;;;;;;;;;;;;;20.57;23.33;95427.78;4946602;29;1519;-66
2023/02/05 06:57:50;;;;;;;;;;;;;;;19.98;22.18;95436.94;4943524;29;1977;-66
2023/02/05 07:00:15;;;;;;;;;;;;;;;19.51;22.60;95440.94;4953883;29;1410;-66
2023/02/05 07:02:41;;;;;;;;;;;;;;;19.04;21.92;95442.25;4933499;29;1335;-67
2023/02/05 07:05:06;;;;;;;;;;;;;;;18.79;22.03;95446.19;4950335;29;1358;-67
2023/02/05 07:07:32;;;;;;;;;;;;;;;18.41;22.05;95448.88;4958666;28;1369;-66
2023/02/05 07:09:57;;;;;;;;;;;;;;;18.08;21.57;95446.53;4961821;28;1402;-66
2023/02/05 07:12:23;;;;;;;;;;;;;;;17.87;21.98;95456.97;4950050;29;1231;-66
2023/02/05 07:14:48;;;;;;;;;;;;;;;17.57;21.90;95456.81;4939039;28;1366;-66
2023/02/05 07:17:13;;;;;;;;;;;;;;;17.44;22.02;95461.88;4949909;29;1938;-66
2023/02/05 07:19:38;;;;;;;;;;;;;;;17.34;21.80;95467.41;4944152;29;1338;-66
2023/02/05 07:22:04;;;;;;;;;;;;;;;17.19;21.71;95464.66;4954294;29;1334;-66
2023/02/05 07:24:29;;;;;;;;;;;;;;;16.94;21.98;95468.41;4950612;28;1543;-66
2023/02/05 07:26:55;;;;;;;;;;;;;;;16.85;21.53;95470.28;4948431;28;1335;-66
2023/02/05 07:29:20;;;;;;;;;;;;;;;16.72;21.56;95477.88;4954622;29;1308;-66
2023/02/05 07:31:47;;;;;;;;;;;;;;;16.54;21.70;95475.44;4966186;28;1590;-66
2023/02/05 07:34:12;;;;;;;;;;;;;;;16.49;21.74;95472.47;4943529;29;1327;-65
2023/02/05 07:36:38;;;;;;;;;;;;;;;16.39;21.59;95483.22;4938972;28;1906;-65
2023/02/05 07:39:03;;;;;;;;;;;;;;;16.24;21.40;95484.91;4955392;28;1398;-65
2023/02/05 07:41:28;;;;;;;;;;;;;;;16.05;21.57;95486.06;4947607;29;1485;-66
2023/02/05 07:43:54;;;;;;;;;;;;;;;15.91;21.67;95490.22;4943939;29;1335;-65
2023/02/05 07:46:19;;;;;;;;;;;;;;;15.79;21.42;95494.16;4935229;28;1327;-66
2023/02/05 07:48:45;;;;;;;;;;;;;;;15.60;22.05;95487.34;4946085;28;1332;-66
2023/02/05 07:51:18;;;;;;;;;;;;;;;15.56;21.93;95491.28;4937265;29;1393;-66
2023/02/05 07:53:44;;;;;;;;;;;;;;;15.41;21.89;95488.44;4940398;29;1386;-66
2023/02/05 07:56:09;;;;;;;;;;;;;;;15.42;22.02;95493.53;4938229;29;1918;-65
2023/02/05 07:58:35;;;;;;;;;;;;;;;15.41;21.87;95494.53;4936279;28;1402;-66
2023/02/05 08:01:01;;;;;;;;;;;;;;;15.35;21.97;95497.84;4957379;28;1370;-66
2023/02/05 08:03:26;;;;;;;;;;;;;;;15.20;21.95;95494.16;4937645;28;1327;-65
2023/02/05 08:05:51;;;;;;;;;;;;;;;15.17;22.84;95502.38;4965606;28;1350;-66
2023/02/05 08:08:17;;;;;;;;;;;;;;;15.99;23.71;95507.91;4937463;29;1336;-66
2023/02/05 08:10:42;;;;;;;;;;;;;;;16.88;23.75;95501.72;4937971;28;1481;-68
2023/02/05 08:13:07;;;;;;;;;;;;;;;17.64;23.63;95507.34;4977521;28;1350;-67
2023/02/05 08:15:33;;;;;;;;;;;;;;;18.24;23.83;95516.41;4946708;29;1541;-65
2023/02/05 08:17:58;;;;;;;;;;;;;;;18.73;23.90;95516.00;4940004;28;1907;-74
2023/02/05 08:20:23;;;;;;;;;;;;;;;18.92;22.09;95526.13;4942379;29;1562;-69
2023/02/05 08:22:48;;;;;;;;;;;;;;;19.03;24.34;95511.56;4933681;29;1402;-68
2023/02/05 08:25:14;;;;;;;;;;;;;;;19.42;24.58;95510.44;4941087;29;1482;-74
2023/02/05 08:27:40;;;;;;;;;;;;;;;19.75;24.89;95517.00;4944806;29;1372;-71
2023/02/05 08:30:07;;;;;;;;;;;;;;;20.17;24.94;95512.72;4946686;28;1390;-69
2023/02/05 08:32:32;;;;;;;;;;;;;;;20.42;24.65;95523.81;4941854;28;1319;-74
2023/02/05 08:34:57;;;;;;;;;;;;;;;20.70;25.03;95531.03;4949929;29;1324;-69
2023/02/05 08:37:23;;;;;;;;;;;;;;;21.10;26.29;95523.31;4947999;29;1958;-68
2023/02/05 08:39:49;;;;;;;;;;;;;;;21.33;26.52;95526.50;4943036;29;1378;-68
2023/02/05 08:42:14;;;;;;;;;;;;;;;21.43;26.44;95531.53;4940337;29;1144;-67
2023/02/05 08:44:39;;;;;;;;;;;;;;;21.49;26.58;95528.06;4957547;28;1358;-67
2023/02/05 08:47:05;;;;;;;;;;;;;;;21.56;26.59;95525.44;4951821;29;1410;-67
2023/02/05 08:49:30;;;;;;;;;;;;;;;21.53;25.81;95528.50;4945566;29;1459;-66
2023/02/05 08:51:57;;;;;;;;;;;;;;;21.61;26.42;95527.50;4948496;29;1303;-67
2023/02/05 08:54:22;;;;;;;;;;;;;;;21.67;26.15;95538.19;4952892;28;1343;-67
2023/02/05 08:56:48;;;;;;;;;;;;;;;21.73;26.15;95542.75;4951706;28;1981;-67
2023/02/05 08:59:13;;;;;;;;;;;;;;;21.80;26.08;95542.78;4958502;28;1268;-65
2023/02/05 09:01:41;;;;;;;;;;;;;;;21.86;26.08;95543.81;4959413;28;1346;-67
2023/02/05 09:04:07;;;;;;;;;;;;;;;21.92;25.96;95535.84;4969881;28;1403;-66
2023/02/05 09:06:33;;;;;;;;;;;;;;;21.99;25.96;95546.53;4933891;29;1549;-66
2023/02/05 09:08:59;;;;;;;;;;;;;;;22.05;26.11;95544.91;4968448;28;1324;-66
2023/02/05 09:11:25;;;;;;;;;;;;;;;22.09;26.15;95555.00;4943887;29;1481;-66
2023/02/05 09:13:51;;;;;;;;;;;;;;;22.14;25.92;95555.22;4943200;29;1427;-66
2023/02/05 09:16:16;;;;;;;;;;;;;;;22.20;25.86;95559.78;4950985;28;1907;-66
2023/02/05 09:18:41;;;;;;;;;;;;;;;22.27;25.95;95561.66;4937499;28;1532;-66
2023/02/05 09:21:07;;;;;;;;;;;;;;;22.31;25.95;95554.84;4955263;29;1409;-66
2023/02/05 09:23:32;;;;;;;;;;;;;;;22.37;25.83;95570.06;4946532;28;1315;-65
2023/02/05 09:25:58;;;;;;;;;;;;;;;22.42;26.03;95583.66;4957299;29;1158;-66
2023/02/05 09:28:23;;;;;;;;;;;;;;;22.37;25.93;95560.22;4947494;28;1276;-66
2023/02/05 09:30:48;;;;;;;;;;;;;;;22.50;25.75;95575.44;4944856;29;1208;-66
2023/02/05 09:33:14;;;;;;;;;;;;;;;22.53;25.96;95569.69;4949539;29;1481;-66
2023/02/05 09:35:39;;;;;;;;;;;;;;;22.56;26.03;95569.28;4945868;29;1470;-66
2023/02/05 09:38:04;;;;;;;;;;;;;;;22.60;26.07;95575.88;4954955;29;1894;-66
2023/02/05 09:40:53;;;;;;;;;;;;;;;22.64;25.93;95582.47;4934841;28;1493;-67
2023/02/05 09:43:22;;;;;;;;;;;;;;;22.68;26.06;95583.72;4946799;28;1426;-67
2023/02/05 09:45:47;;;;;;;;;;;;;;;22.73;26.32;95585.75;4960949;28;1331;-66
2023/02/05 09:48:24;;;;;;;;;;;;;;;22.78;26.34;95585.97;4954906;29;1421;-67
2023/02/05 09:50:50;;;;;;;;;;;;;;;22.81;26.32;95587.41;4941939;29;1351;-67
2023/02/05 09:53:17;;;;;;;;;;;;;;;22.88;27.11;95585.56;4945264;28;1366;-67
2023/02/05 09:55:46;;;;;;;;;;;;;;;22.93;27.02;95580.41;4950747;28;1319;-67
2023/02/05 09:58:13;;;;;;;;;;;;;;;22.98;27.42;95594.03;4943282;29;1972;-66
2023/02/05 10:00:47;;;;;;;;;;;;;;;23.00;27.53;95586.63;4945404;28;1430;-66
2023/02/05 10:03:12;;;;;;;;;;;;;;;23.02;27.43;95583.72;4938368;28;1433;-67
2023/02/05 10:05:51;;;;;;;;;;;;;;;23.02;27.54;95584.53;4946491;29;1327;-65
2023/02/05 10:08:16;;;;;;;;;;;;;;;23.01;27.32;95582.91;4945842;29;1533;-65
2023/02/05 10:10:46;;;;;;;;;;;;;;;23.02;27.56;95581.88;4947630;29;1477;-67
2023/02/05 10:13:22;;;;;;;;;;;;;;;23.04;27.34;95582.50;4947726;29;1478;-67
2023/02/05 10:16:06;;;;;;;;;;;;;;;23.06;27.31;95584.97;4952111;28;1319;-67
2023/02/05 10:18:50;;;;;;;;;;;;;;;23.06;27.29;95585.78;4963815;28;1362;-67
2023/02/05 10:21:34;;;;;;;;;;;;;;;23.06;27.43;95585.78;4947130;29;1263;-67
2023/02/05 10:23:59;;;;;;;;;;;;;;;23.07;27.19;95594.66;4947407;29;1256;-67
2023/02/05 10:26:30;;;;;;;;;;;;;;;23.08;27.31;95594.44;4946158;28;1429;-67
2023/02/05 10:28:58;;;;;;;;;;;;;;;23.10;27.16;95592.38;4970797;28;1363;-67
2023/02/05 10:31:26;;;;;;;;;;;;;;;23.11;27.29;95591.34;4947862;29;1366;-66
2023/02/05 10:33:55;;;;;;;;;;;;;;;23.11;27.36;95594.03;4942219;29;1598;-68
2023/02/05 10:36:22;;;;;;;;;;;;;;;23.13;27.07;95591.94;4948915;28;1910;-67
2023/02/05 10:38:48;;;;;;;;;;;;;;;23.15;26.94;95598.97;4935685;28;1269;-66
2023/02/05 10:41:13;;;;;;;;;;;;;;;23.15;27.12;95599.78;4941088;28;1401;-67
2023/02/05 10:43:46;;;;;;;;;;;;;;;23.16;27.02;95596.06;4955570;29;1097;-67
2023/02/05 10:46:12;;;;;;;;;;;;;;;23.17;27.04;95591.53;4954419;28;1395;-67
2023/02/05 10:48:47;;;;;;;;;;;;;;;23.18;26.95;95587.84;4941597;28;1359;-67
2023/02/05 10:51:16;;;;;;;;;;;;;;;23.18;26.92;95593.19;4937029;29;1455;-67
2023/02/05 10:53:42;;;;;;;;;;;;;;;23.19;27.07;95589.47;4949390;29;1466;-67
2023/02/05 10:56:10;;;;;;;;;;;;;;;23.19;27.05;95586.81;4946546;28;1914;-67
2023/02/05 10:58:41;;;;;;;;;;;;;;;23.21;26.79;95595.47;4951547;28;1505;-67
2023/02/05 11:01:11;;;;;;;;;;;;;;;22.98;25.16;95588.69;4935747;28;1363;-67
2023/02/05 11:03:37;;;;;;;;;;;;;;;22.96;26.07;95584.56;4940386;29;1422;-67
2023/02/05 11:06:06;;;;;;;;;;;;;;;23.02;26.41;95595.25;4942223;29;1343;-67
2023/02/05 11:08:40;;;;;;;;;;;;;;;23.07;26.75;95603.50;4947324;28;1315;-67
2023/02/05 11:11:06;;;;;;;;;;;;;;;23.11;26.62;95601.25;4939721;28;1501;-67
2023/02/05 11:13:32;;;;;;;;;;;;;;;23.15;26.60;95593.63;4938478;29;1328;-67
2023/02/05 11:16:01;;;;;;;;;;;;;;;23.17;26.72;95599.56;4947730;29;1919;-67
2023/02/05 11:18:27;;;;;;;;;;;;;;;23.20;26.66;95594.66;4951812;28;1410;-66
2023/02/05 11:20:55;;;;;;;;;;;;;;;23.20;26.48;95591.97;4953633;28;1478;-67
2023/02/05 11:23:22;;;;;;;;;;;;;;;23.22;26.53;95611.28;4940902;28;1434;-67
2023/02/05 11:25:48;;;;;;;;;;;;;;;23.25;26.69;95604.72;4944955;28;1461;-67
2023/02/05 11:28:19;;;;;;;;;;;;;;;23.25;26.68;95600.19;4945447;29;1422;-66
2023/02/05 11:30:44;;;;;;;;;;;;;;;23.27;26.52;95597.31;4950995;28;1324;-67
2023/02/05 11:33:21;;;;;;;;;;;;;;;23.27;26.72;95603.47;4948901;29;1502;-67
2023/02/05 11:35:53;;;;;;;;;;;;;;;23.28;26.72;95598.94;4941329;29;1355;-67
2023/02/05 11:38:28;;;;;;;;;;;;;;;23.29;26.63;95603.28;4938351;29;1489;-67
2023/02/05 11:40:55;;;;;;;;;;;;;;;23.28;26.50;95602.47;4939946;29;1370;-67
2023/02/05 11:43:31;;;;;;;;;;;;;;;23.30;26.72;95604.91;4941898;29;1407;-67
2023/02/05 11:45:59;;;;;;;;;;;;;;;23.31;26.56;95603.91;4933116;29;1330;-68
2023/02/05 11:48:31;;;;;;;;;;;;;;;23.33;26.88;95601.81;4951364;29;1454;-67
2023/02/05 11:50:56;;;;;;;;;;;;;;;23.32;26.57;95602.84;4951293;28;1427;-67
2023/02/05 11:53:23;;;;;;;;;;;;;;;23.33;26.73;95596.47;4942841;29;1415;-68
2023/02/05 11:55:53;;;;;;;;;;;;;;;23.34;26.60;95593.59;4941411;28;1549;-68
2023/02/05 11:58:31;;;;;;;;;;;;;;;23.34;26.46;95604.31;4938143;28;1430;-68
2023/02/05 12:00:59;;;;;;;;;;;;;;;23.35;26.60;95599.75;4950274;29;1482;-68
2023/02/05 12:03:30;;;;;;;;;;;;;;;23.35;26.77;95605.13;4947263;29;1403;-68
2023/02/05 12:06:03;;;;;;;;;;;;;;;23.35;26.67;95600.59;4952242;29;1288;-68
2023/02/05 12:08:48;;;;;;;;;;;;;;;23.37;26.67;95599.53;4939174;28;1375;-68
2023/02/05 12:11:59;;;;;;;;;;;;;;;23.36;26.58;95596.03;4948216;29;1390;-67
2023/02/05 12:14:21;;;;;;;;;;;;;;;23.36;26.75;95604.06;4949139;28;1396;-67
2023/02/05 12:16:59;;;;;;;;;;;;;;;23.37;26.58;95600.38;4939944;29;1906;-67
2023/02/05 12:19:31;;;;;;;;;;;;;;;23.38;26.80;95596.66;4933475;29;1392;-67
2023/02/05 12:22:26;;;;;;;;;;;;;;;23.39;26.85;95598.31;4960765;28;1545;-67
2023/02/05 12:24:57;;;;;;;;;;;;;;;23.40;26.80;95585.75;4937252;29;1303;-66
2023/02/05 12:27:32;;;;;;;;;;;;;;;23.40;26.80;95599.16;4963427;28;1387;-67
2023/02/05 12:30:16;;;;;;;;;;;;;;;23.41;26.56;95606.13;4948944;28;1450;-67
2023/02/05 12:32:42;;;;;;;;;;;;;;;23.40;26.70;95602.66;4936121;29;1415;-68
2023/02/05 12:35:18;;;;;;;;;;;;;;;23.41;26.68;95600.78;4954196;29;1338;-67
2023/02/05 12:38:02;;;;;;;;;;;;;;;23.42;26.81;95607.78;4954084;28;1973;-67
2023/02/05 12:40:36;;;;;;;;;;;;;;;23.42;26.84;95605.09;4945404;29;1382;-67
2023/02/05 12:43:08;;;;;;;;;;;;;;;23.42;26.56;95608.59;4948080;28;1430;-67
2023/02/05 12:45:39;;;;;;;;;;;;;;;23.43;26.88;95607.59;4952890;28;1474;-67
2023/02/05 12:48:24;;;;;;;;;;;;;;;23.45;26.70;95612.72;4950025;28;1434;-67
2023/02/05 12:50:53;;;;;;;;;;;;;;;23.44;26.82;95609.22;4929404;29;1415;-67
2023/02/05 12:53:25;;;;;;;;;;;;;;;23.44;26.64;95606.53;4938440;28;1423;-68
2023/02/05 12:55:57;;;;;;;;;;;;;;;23.46;26.63;95606.34;4951586;28;1423;-67
2023/02/05 12:58:26;;;;;;;;;;;;;;;23.44;26.59;95601.19;4948516;29;1494;-67
2023/02/05 13:00:54;;;;;;;;;;;;;;;23.46;26.68;95614.38;4942802;29;1387;-67
2023/02/05 13:03:29;;;;;;;;;;;;;;;23.44;26.71;95603.84;4945424;29;1311;-67
2023/02/05 13:06:00;;;;;;;;;;;;;;;23.46;26.94;95611.69;4932640;28;1335;-67